createdAt,value
2022-12-05T00:02:02.316Z,371.83
2022-12-05T00:04:30.683Z,386.50
2022-12-05T00:06:58.823Z,385.75
2022-12-05T00:09:28.345Z,384.85
2022-12-05T00:11:57.809Z,364.60
2022-12-05T00:14:26.090Z,392.40
2022-12-05T00:16:54.274Z,366.10
2022-12-05T00:19:22.659Z,375.02
2022-12-05T00:21:50.953Z,394.63
2022-12-05T00:24:19.910Z,376.65
2022-12-05T00:26:49.426Z,366.48
2022-12-05T00:29:18.244Z,373.33
2022-12-05T00:31:46.576Z,369.50
2022-12-05T00:34:15.016Z,378.42
2022-12-05T00:36:45.201Z,373.35
2022-12-05T00:39:15.275Z,373.73
2022-12-05T00:41:44.167Z,376.05
2022-12-05T00:44:15.340Z,358.65
2022-12-05T00:46:44.586Z,382.45
2022-12-05T00:49:13.839Z,378.48
2022-12-05T00:51:43.910Z,385.05
2022-12-05T00:54:14.052Z,379.15
2022-12-05T00:56:42.457Z,391.77
2022-12-05T00:59:15.832Z,373.08
2022-12-05T01:01:45.378Z,388.27
2022-12-05T01:04:15.094Z,364.08
2022-12-05T01:06:43.979Z,362.58
2022-12-05T01:09:14.749Z,376.75
2022-12-05T01:11:43.893Z,394.92
2022-12-05T01:14:13.580Z,365.48
2022-12-05T01:16:44.839Z,384.63
2022-12-05T01:19:15.287Z,355.58
2022-12-05T01:21:43.962Z,362.48
2022-12-05T01:24:12.879Z,375.13
2022-12-05T01:26:41.783Z,379.33
2022-12-05T01:29:10.228Z,379.38
2022-12-05T01:31:39.405Z,395.33
2022-12-05T01:34:12.107Z,380.73
2022-12-05T01:36:43.353Z,363.95
2022-12-05T01:39:13.529Z,374.08
2022-12-05T01:41:44.163Z,398.15
2022-12-05T01:44:45.844Z,381.55
2022-12-05T01:47:18.155Z,369.20
2022-12-05T01:49:50.230Z,390.30
2022-12-05T01:52:21.874Z,395.40
2022-12-05T01:54:52.764Z,408.10
2022-12-05T01:57:21.056Z,400.77
2022-12-05T02:00:01.645Z,375.83
2022-12-05T02:02:41.539Z,390.92
2022-12-05T02:05:17.158Z,399.55
2022-12-05T02:07:46.483Z,397.83
2022-12-05T02:10:17.021Z,380.92
2022-12-05T02:12:46.065Z,386.98
2022-12-05T02:15:24.671Z,387.83
2022-12-05T02:18:05.683Z,393.95
2022-12-05T02:20:50.635Z,385.50
2022-12-05T02:23:32.746Z,403.95
2022-12-05T02:26:39.486Z,404.13
2022-12-05T02:29:43.361Z,388.10
2022-12-05T02:32:21.088Z,402.40
2022-12-05T02:34:57.185Z,411.73
2022-12-05T02:37:32.668Z,392.38
2022-12-05T02:40:07.561Z,403.58
2022-12-05T02:42:42.539Z,390.63
2022-12-05T02:45:14.647Z,382.25
2022-12-05T02:47:48.770Z,399.55
2022-12-05T02:50:23.371Z,381.05
2022-12-05T02:52:55.036Z,394.92
2022-12-05T02:55:25.147Z,370.65
2022-12-05T02:57:59.257Z,386.58
2022-12-05T03:00:30.595Z,404.05
2022-12-05T03:03:01.645Z,379.95
2022-12-05T03:05:42.000Z,391.63
2022-12-05T03:08:17.800Z,387.58
2022-12-05T03:10:48.316Z,382.95
2022-12-05T03:13:22.541Z,374.65
2022-12-05T03:15:57.744Z,386.00
2022-12-05T03:18:31.477Z,370.20
2022-12-05T03:21:05.042Z,355.83
2022-12-05T03:23:37.178Z,377.90
2022-12-05T03:26:14.409Z,366.30
2022-12-05T03:29:01.596Z,369.95
2022-12-05T03:31:40.780Z,367.27
2022-12-05T03:34:17.257Z,343.88
2022-12-05T03:36:49.245Z,342.88
2022-12-05T03:39:23.670Z,347.40
2022-12-05T03:42:02.430Z,346.88
2022-12-05T03:44:36.946Z,321.15
2022-12-05T03:47:09.984Z,364.50
2022-12-05T03:49:44.666Z,347.05
2022-12-05T03:52:19.212Z,331.30
2022-12-05T03:54:50.534Z,333.75
2022-12-05T03:57:23.149Z,343.42
2022-12-05T03:59:57.847Z,346.70
2022-12-05T04:02:29.582Z,348.23
2022-12-05T04:05:02.819Z,342.42
2022-12-05T04:07:33.071Z,337.20
2022-12-05T04:10:07.255Z,337.80
2022-12-05T04:12:37.435Z,358.73
2022-12-05T04:15:11.623Z,364.13
2022-12-05T04:17:50.492Z,379.23
2022-12-05T04:20:43.900Z,344.27
2022-12-05T04:23:12.333Z,354.80
2022-12-05T04:25:50.864Z,362.48
2022-12-05T04:28:28.279Z,367.75
2022-12-05T04:31:04.339Z,353.88
2022-12-05T04:33:40.823Z,346.20
2022-12-05T04:36:14.789Z,357.85
2022-12-05T04:38:48.634Z,316.05
2022-12-05T04:41:22.466Z,354.00
2022-12-05T04:43:52.332Z,331.75
2022-12-05T04:46:22.748Z,318.08
2022-12-05T04:48:54.967Z,307.77
2022-12-05T04:51:27.626Z,301.48
2022-12-05T04:56:29.044Z,299.23
2022-12-05T04:58:57.303Z,315.85
2022-12-05T05:01:34.039Z,304.73
2022-12-05T05:04:08.366Z,298.33
2022-12-05T05:06:40.194Z,291.73
2022-12-05T05:09:08.559Z,300.67
2022-12-05T05:11:37.432Z,264.48
2022-12-05T05:14:06.013Z,277.90
2022-12-05T05:16:36.510Z,287.67
2022-12-05T05:19:05.539Z,260.52
2022-12-05T05:21:36.436Z,290.77
2022-12-05T05:24:07.320Z,282.55
2022-12-05T05:26:37.850Z,266.75
2022-12-05T05:29:06.444Z,285.15
2022-12-05T05:31:34.709Z,276.15
2022-12-05T05:34:09.069Z,229.07
2022-12-05T05:36:38.351Z,262.50
2022-12-05T05:39:13.050Z,240.48
2022-12-05T05:41:41.186Z,242.73
2022-12-05T05:44:09.354Z,238.77
2022-12-05T05:46:37.888Z,228.25
2022-12-05T05:49:06.739Z,236.85
2022-12-05T05:51:34.877Z,234.65
2022-12-05T05:54:03.238Z,213.93
2022-12-05T05:56:34.970Z,211.57
2022-12-05T05:59:04.616Z,201.88
2022-12-05T06:01:35.155Z,198.38
2022-12-05T06:04:03.720Z,227.65
2022-12-05T06:06:32.074Z,193.35
2022-12-05T06:09:00.188Z,209.20
2022-12-05T06:11:29.123Z,195.10
2022-12-05T06:14:01.055Z,196.50
2022-12-05T06:16:30.366Z,190.30
2022-12-05T06:18:58.758Z,195.15
2022-12-05T06:21:27.565Z,201.00
2022-12-05T06:23:55.964Z,168.80
2022-12-05T06:26:24.389Z,176.43
2022-12-05T06:28:55.420Z,194.20
2022-12-05T06:31:31.086Z,197.88
2022-12-05T06:34:02.920Z,194.07
2022-12-05T06:36:31.707Z,194.32
2022-12-05T06:39:00.692Z,182.02
2022-12-05T06:41:28.935Z,190.02
2022-12-05T06:44:01.871Z,177.38
2022-12-05T06:46:31.861Z,183.45
2022-12-05T06:49:00.673Z,192.68
2022-12-05T06:51:29.109Z,185.60
2022-12-05T06:53:57.405Z,194.05
2022-12-05T06:56:25.520Z,192.75
2022-12-05T06:58:55.521Z,201.00
2022-12-05T07:01:41.504Z,193.55
2022-12-05T07:04:15.500Z,204.30
2022-12-05T07:06:50.152Z,193.57
2022-12-05T07:09:20.148Z,185.63
2022-12-05T07:11:49.169Z,203.88
2022-12-05T07:14:45.695Z,185.23
2022-12-05T07:17:07.996Z,196.88
2022-12-05T07:19:37.706Z,205.75
2022-12-05T07:22:13.718Z,212.57
2022-12-05T07:24:44.076Z,195.52
2022-12-05T07:27:12.155Z,195.60
2022-12-05T07:29:40.434Z,197.13
2022-12-05T07:32:08.730Z,190.48
2022-12-05T07:34:39.474Z,202.77
2022-12-05T07:37:08.081Z,183.77
2022-12-05T07:39:36.284Z,190.25
2022-12-05T07:42:04.331Z,211.40
2022-12-05T07:44:34.886Z,191.95
2022-12-05T07:47:03.016Z,172.27
2022-12-05T07:49:32.367Z,204.70
2022-12-05T07:52:03.163Z,183.88
2022-12-05T07:54:31.304Z,184.63
2022-12-05T07:56:59.508Z,178.57
2022-12-05T07:59:27.666Z,208.40
2022-12-05T08:01:56.026Z,261.88
2022-12-05T08:04:24.167Z,214.82
2022-12-05T08:06:52.265Z,202.32
2022-12-05T08:09:23.847Z,167.48
2022-12-05T08:11:52.949Z,186.75
2022-12-05T08:14:21.615Z,164.43
2022-12-05T08:16:49.976Z,196.73
2022-12-05T08:19:18.154Z,187.05
2022-12-05T08:21:47.007Z,206.23
2022-12-05T08:24:17.369Z,230.40
2022-12-05T08:26:49.554Z,231.77
2022-12-05T08:29:21.271Z,229.13
2022-12-05T08:31:51.613Z,190.10
2022-12-05T08:34:21.458Z,208.02
2022-12-05T08:36:50.326Z,194.57
2022-12-05T08:39:20.590Z,203.90
2022-12-05T08:41:52.657Z,189.13
2022-12-05T08:44:21.020Z,213.18
2022-12-05T08:46:51.588Z,237.05
2022-12-05T08:49:20.301Z,181.90
2022-12-05T08:51:48.450Z,187.70
2022-12-05T08:54:17.631Z,204.45
2022-12-05T08:56:45.705Z,203.93
2022-12-05T08:59:18.736Z,233.55
2022-12-05T09:01:47.049Z,188.68
2022-12-05T09:04:15.518Z,214.07
2022-12-05T09:06:43.647Z,223.23
2022-12-05T09:09:15.313Z,208.73
2022-12-05T09:11:50.847Z,324.50
2022-12-05T09:14:20.606Z,385.98
2022-12-05T09:16:49.159Z,275.15
2022-12-05T09:19:25.203Z,161.32
2022-12-05T09:21:59.924Z,155.07
2022-12-05T09:24:28.768Z,176.60
2022-12-05T09:26:56.943Z,183.55
2022-12-05T09:29:29.423Z,186.88
2022-12-05T09:31:59.952Z,184.15
2022-12-05T09:34:28.139Z,182.15
2022-12-05T09:37:16.357Z,187.30
2022-12-05T09:39:46.251Z,252.40
2022-12-05T09:42:39.917Z,174.13
2022-12-05T09:45:19.888Z,165.38
2022-12-05T09:47:56.289Z,179.55
2022-12-05T09:50:26.653Z,168.43
2022-12-05T09:53:13.202Z,166.10
2022-12-05T09:55:46.964Z,184.60
2022-12-05T09:58:29.871Z,183.50
2022-12-05T10:01:05.487Z,159.30
2022-12-05T10:03:43.686Z,160.48
2022-12-05T10:06:18.705Z,165.88
2022-12-05T10:09:13.229Z,155.05
2022-12-05T10:11:47.718Z,161.32
2022-12-05T10:14:24.222Z,159.50
2022-12-05T10:16:57.579Z,157.68
2022-12-05T10:19:29.864Z,159.88
2022-12-05T10:22:03.352Z,151.80
2022-12-05T10:24:38.177Z,166.23
2022-12-05T10:27:08.687Z,167.05
2022-12-05T10:29:40.496Z,162.23
2022-12-05T10:32:18.281Z,158.73
2022-12-05T10:34:46.849Z,172.63
2022-12-05T10:37:18.035Z,156.80
2022-12-05T10:39:47.325Z,142.75
2022-12-05T10:42:17.731Z,150.23
2022-12-05T10:44:46.399Z,163.70
2022-12-05T10:47:15.917Z,167.85
2022-12-05T10:49:44.637Z,135.32
2022-12-05T10:52:15.235Z,136.70
2022-12-05T10:54:48.290Z,137.75
2022-12-05T10:57:24.838Z,144.43
2022-12-05T10:59:53.332Z,153.35
2022-12-05T11:02:27.050Z,158.20
2022-12-05T11:04:56.779Z,141.55
2022-12-05T11:07:30.260Z,155.75
2022-12-05T11:09:58.967Z,150.38
2022-12-05T11:12:30.212Z,157.93
2022-12-05T11:15:02.011Z,184.05
2022-12-05T11:17:34.929Z,142.43
2022-12-05T11:22:36.101Z,157.73
2022-12-05T11:25:25.520Z,155.63
2022-12-05T11:27:57.115Z,158.63
2022-12-05T11:30:31.377Z,167.85
2022-12-05T11:33:20.750Z,156.48
2022-12-05T11:35:50.363Z,173.65
2022-12-05T11:38:25.996Z,184.23
2022-12-05T11:40:58.544Z,173.90
2022-12-05T11:43:55.064Z,176.98
2022-12-05T11:46:35.367Z,184.00
2022-12-05T11:49:25.718Z,157.40
2022-12-05T11:52:04.652Z,164.52
2022-12-05T11:55:06.669Z,183.43
2022-12-05T11:58:12.140Z,182.15
2022-12-05T12:00:48.496Z,174.38
2022-12-05T12:03:53.807Z,177.80
2022-12-05T12:06:30.283Z,170.52
2022-12-05T12:09:16.595Z,173.23
2022-12-05T12:11:50.752Z,166.93
2022-12-05T12:14:28.290Z,194.00
2022-12-05T12:17:10.839Z,183.82
2022-12-05T12:20:10.940Z,179.93
2022-12-05T12:22:54.324Z,169.48
2022-12-05T12:25:31.818Z,184.93
2022-12-05T12:28:14.210Z,191.05
2022-12-05T12:30:58.770Z,178.30
2022-12-05T12:33:33.512Z,181.93
2022-12-05T12:36:11.258Z,157.65
2022-12-05T12:38:53.537Z,166.00
2022-12-05T12:41:41.641Z,186.97
2022-12-05T12:44:33.286Z,186.18
2022-12-05T12:47:04.770Z,171.63
2022-12-05T12:49:53.273Z,184.90
2022-12-05T12:52:23.984Z,203.10
2022-12-05T12:55:16.767Z,197.63
2022-12-05T13:00:24.841Z,215.23
2022-12-05T13:03:01.317Z,239.00
2022-12-05T13:05:35.499Z,222.70
2022-12-05T13:08:12.858Z,238.57
2022-12-05T13:10:45.203Z,232.07
2022-12-05T13:13:19.137Z,238.98
2022-12-05T13:15:51.265Z,228.23
2022-12-05T13:18:20.940Z,244.60
2022-12-05T13:20:51.312Z,227.13
2022-12-05T13:23:23.000Z,260.58
2022-12-05T13:25:55.304Z,244.77
2022-12-05T13:28:32.829Z,227.55
2022-12-05T13:31:04.847Z,306.00
2022-12-05T13:33:36.961Z,265.60
2022-12-05T13:36:28.812Z,272.17
2022-12-05T13:39:16.364Z,277.48
2022-12-05T13:42:04.747Z,340.33
2022-12-05T13:44:39.032Z,250.98
2022-12-05T13:47:16.710Z,301.70
2022-12-05T13:49:50.460Z,235.05
2022-12-05T13:54:56.281Z,238.07
2022-12-05T13:57:50.966Z,262.65
2022-12-05T14:00:31.476Z,247.07
2022-12-05T14:03:06.077Z,283.13
2022-12-05T14:05:42.913Z,310.25
2022-12-05T14:08:53.482Z,300.00
2022-12-05T14:11:21.900Z,290.40
2022-12-05T14:13:51.772Z,300.50
2022-12-05T14:16:47.516Z,262.50
2022-12-05T14:19:52.653Z,296.17
2022-12-05T14:22:53.427Z,306.67
2022-12-05T14:25:35.480Z,333.15
2022-12-05T14:28:19.385Z,312.33
2022-12-05T14:31:09.503Z,322.80
2022-12-05T14:33:37.661Z,311.23
2022-12-05T14:36:08.930Z,304.80
2022-12-05T14:38:38.519Z,345.33
2022-12-05T14:41:15.104Z,338.90
2022-12-05T14:43:44.132Z,311.63
2022-12-05T14:46:25.882Z,340.25
2022-12-05T14:48:55.976Z,343.40
2022-12-05T14:51:46.941Z,324.02
2022-12-05T14:54:18.095Z,298.88
2022-12-05T14:56:49.525Z,329.13
2022-12-05T14:59:27.069Z,365.63
2022-12-05T15:01:59.375Z,335.42
2022-12-05T15:04:35.696Z,306.08
2022-12-05T15:07:09.218Z,382.20
2022-12-05T15:09:55.701Z,374.13
2022-12-05T15:12:28.194Z,355.02
2022-12-05T15:15:05.755Z,347.75
2022-12-05T15:17:39.948Z,328.92
2022-12-05T15:20:17.270Z,370.08
2022-12-05T15:22:47.947Z,352.95
2022-12-05T15:25:27.967Z,337.38
2022-12-05T15:27:58.724Z,315.23
2022-12-05T15:30:30.864Z,351.05
2022-12-05T15:33:00.800Z,342.85
2022-12-05T15:35:35.252Z,363.95
2022-12-05T15:38:10.555Z,353.03
2022-12-05T15:40:38.779Z,437.80
2022-12-05T15:43:30.071Z,399.98
2022-12-05T15:46:23.819Z,407.67
2022-12-05T15:48:59.575Z,368.20
2022-12-05T15:51:34.141Z,340.10
2022-12-05T15:54:07.676Z,406.27
2022-12-05T15:56:40.448Z,431.25
2022-12-05T16:01:44.656Z,400.03
2022-12-05T16:04:29.225Z,400.02
2022-12-05T16:07:04.223Z,440.80
2022-12-05T16:09:34.483Z,348.25
2022-12-05T16:12:06.032Z,365.30
2022-12-05T16:14:58.933Z,372.65
2022-12-05T16:17:25.599Z,421.45
2022-12-05T16:20:11.260Z,371.48
2022-12-05T16:22:46.170Z,381.92
2022-12-05T16:25:16.543Z,367.77
2022-12-05T16:27:56.630Z,351.55
2022-12-05T16:30:25.690Z,397.77
2022-12-05T16:33:04.536Z,397.52
2022-12-05T16:35:40.044Z,407.30
2022-12-05T16:38:14.485Z,531.72
2022-12-05T16:40:53.833Z,344.60
2022-12-05T16:43:29.112Z,361.25
2022-12-05T16:45:59.776Z,404.25
2022-12-05T16:48:29.914Z,385.13
2022-12-05T16:51:18.321Z,380.95
2022-12-05T16:53:48.036Z,379.70
2022-12-05T16:56:19.576Z,353.13
2022-12-05T16:58:48.670Z,363.27
2022-12-05T17:01:20.061Z,399.13
2022-12-05T17:03:48.493Z,345.92
2022-12-05T17:06:19.151Z,351.35
2022-12-05T17:08:47.215Z,384.85
2022-12-05T17:11:19.409Z,355.02
2022-12-05T17:13:48.654Z,348.50
2022-12-05T17:16:18.122Z,354.75
2022-12-05T17:18:46.596Z,352.75
2022-12-05T17:21:18.888Z,334.38
2022-12-05T17:23:48.430Z,347.58
2022-12-05T17:26:18.806Z,365.20
2022-12-05T17:28:47.685Z,365.98
2022-12-05T17:31:17.765Z,380.85
2022-12-05T17:33:46.797Z,346.65
2022-12-05T17:36:15.514Z,351.65
2022-12-05T17:38:45.692Z,337.58
2022-12-05T17:41:18.240Z,341.23
2022-12-05T17:43:46.597Z,358.25
2022-12-05T17:46:18.925Z,372.00
2022-12-05T17:48:48.056Z,334.65
2022-12-05T17:51:16.711Z,363.77
2022-12-05T17:53:47.341Z,336.58
2022-12-05T17:56:16.079Z,329.55
2022-12-05T17:58:44.353Z,334.98
2022-12-05T18:01:15.960Z,327.63
2022-12-05T18:03:44.288Z,324.33
2022-12-05T18:06:12.586Z,303.00
2022-12-05T18:08:43.790Z,311.77
2022-12-05T18:13:43.163Z,290.60
2022-12-05T18:16:11.447Z,280.88
2022-12-05T18:18:40.172Z,286.45
2022-12-05T18:21:09.992Z,273.40
2022-12-05T18:23:39.299Z,280.98
2022-12-05T18:26:08.630Z,279.63
2022-12-05T18:28:39.586Z,283.50
2022-12-05T18:31:10.422Z,247.23
2022-12-05T18:33:40.935Z,249.75
2022-12-05T18:36:11.391Z,257.63
2022-12-05T18:38:40.744Z,268.88
2022-12-05T18:41:08.985Z,262.27
2022-12-05T18:43:40.008Z,265.17
2022-12-05T18:46:08.325Z,262.52
2022-12-05T18:48:40.853Z,252.77
2022-12-05T18:51:15.706Z,252.88
2022-12-05T18:53:51.612Z,251.88
2022-12-05T18:56:24.988Z,225.68
2022-12-05T18:58:59.483Z,253.82
2022-12-05T19:01:28.365Z,235.57
2022-12-05T19:03:59.521Z,249.13
2022-12-05T19:06:31.242Z,237.13
2022-12-05T19:09:02.153Z,212.60
2022-12-05T19:11:30.692Z,217.30
2022-12-05T19:14:03.793Z,223.65
2022-12-05T19:16:34.039Z,209.43
2022-12-05T19:19:03.720Z,230.20
2022-12-05T19:21:33.744Z,209.68
2022-12-05T19:24:03.955Z,212.85
2022-12-05T19:26:32.194Z,211.25
2022-12-05T19:29:00.388Z,210.82
2022-12-05T19:31:31.527Z,208.35
2022-12-05T19:34:03.907Z,203.82
2022-12-05T19:36:35.483Z,183.30
2022-12-05T19:39:10.456Z,187.45
2022-12-05T19:41:38.498Z,190.80
2022-12-05T19:44:09.328Z,183.45
2022-12-05T19:46:38.850Z,173.98
2022-12-05T19:49:09.593Z,163.50
2022-12-05T19:51:38.302Z,174.65
2022-12-05T19:54:07.631Z,173.25
2022-12-05T19:56:37.335Z,151.05
2022-12-05T19:59:06.721Z,160.25
2022-12-05T20:01:37.120Z,167.02
2022-12-05T20:04:09.207Z,175.35
2022-12-05T20:06:43.060Z,166.63
2022-12-05T20:09:13.512Z,175.55
2022-12-05T20:11:43.902Z,189.80
2022-12-05T20:14:14.443Z,184.77
2022-12-05T20:16:42.698Z,198.60
2022-12-05T20:19:14.658Z,178.95
2022-12-05T20:21:44.319Z,180.98
2022-12-05T20:24:12.605Z,185.82
2022-12-05T20:26:42.270Z,179.00
2022-12-05T20:29:10.908Z,183.30
2022-12-05T20:31:40.433Z,165.88
2022-12-05T20:34:13.305Z,168.15
2022-12-05T20:36:43.745Z,160.82
2022-12-05T20:39:15.288Z,140.93
2022-12-05T20:41:43.825Z,145.30
2022-12-05T20:44:14.688Z,137.75
2022-12-05T20:46:42.865Z,138.32
2022-12-05T20:49:12.363Z,137.50
2022-12-05T20:51:44.713Z,143.05
2022-12-05T20:54:13.713Z,138.25
2022-12-05T20:56:42.262Z,127.00
2022-12-05T20:59:13.351Z,120.55
2022-12-05T21:01:41.961Z,111.22
2022-12-05T21:04:10.485Z,108.65
2022-12-05T21:06:42.799Z,110.57
2022-12-05T21:09:15.859Z,91.32
2022-12-05T21:11:44.054Z,96.72
2022-12-05T21:14:12.791Z,95.70
2022-12-05T21:16:41.195Z,99.70
2022-12-05T21:19:09.808Z,91.22
2022-12-05T21:21:38.066Z,84.35
2022-12-05T21:24:07.599Z,90.97
2022-12-05T21:26:37.575Z,90.57
2022-12-05T21:29:07.328Z,92.18
2022-12-05T21:31:37.434Z,82.28
2022-12-05T21:34:08.015Z,79.18
2022-12-05T21:36:37.807Z,84.30
2022-12-05T21:39:06.822Z,76.18
2022-12-05T21:41:36.463Z,80.95
2022-12-05T21:44:05.239Z,78.88
2022-12-05T21:46:33.754Z,75.68
2022-12-05T21:49:01.990Z,73.72
2022-12-05T21:51:30.164Z,71.70
2022-12-05T21:53:58.472Z,69.13
2022-12-05T21:56:26.611Z,70.72
2022-12-05T21:58:56.065Z,71.20
2022-12-05T22:01:26.337Z,65.03
2022-12-05T22:03:59.375Z,58.65
2022-12-05T22:06:28.357Z,58.50
2022-12-05T22:08:56.883Z,63.58
2022-12-05T22:11:25.755Z,57.67
2022-12-05T22:13:55.266Z,62.13
2022-12-05T22:16:29.184Z,61.53
2022-12-05T22:19:00.443Z,61.60
2022-12-05T22:21:33.711Z,60.60
2022-12-05T22:24:01.931Z,70.45
2022-12-05T22:26:30.043Z,67.70
2022-12-05T22:28:59.535Z,66.30
2022-12-05T22:31:27.746Z,75.55
2022-12-05T22:33:55.858Z,66.50
2022-12-05T22:36:24.508Z,71.40
2022-12-05T22:38:52.654Z,69.22
2022-12-05T22:41:22.681Z,74.82
2022-12-05T22:43:54.696Z,73.97
2022-12-05T22:46:24.749Z,68.20
2022-12-05T22:48:53.298Z,70.53
2022-12-05T22:51:23.960Z,69.95
2022-12-05T22:53:52.869Z,71.55
2022-12-05T22:56:27.190Z,72.43
2022-12-05T22:58:56.340Z,70.70
2022-12-05T23:01:27.785Z,73.80
2022-12-05T23:03:56.975Z,70.22
2022-12-05T23:06:25.250Z,73.65
2022-12-05T23:08:53.443Z,66.50
2022-12-05T23:11:22.741Z,66.35
2022-12-05T23:13:54.777Z,60.47
2022-12-05T23:16:29.304Z,57.72
2022-12-05T23:18:59.676Z,57.20
2022-12-05T23:21:29.965Z,54.10
2022-12-05T23:24:00.738Z,51.22
2022-12-05T23:26:31.104Z,55.00
2022-12-05T23:28:59.380Z,53.95
2022-12-05T23:31:28.932Z,54.97
2022-12-05T23:34:02.723Z,50.50
2022-12-05T23:36:31.777Z,55.92
2022-12-05T23:39:01.572Z,53.30
2022-12-05T23:41:30.699Z,49.72
2022-12-05T23:43:59.859Z,48.70
2022-12-05T23:46:30.133Z,47.35
2022-12-05T23:48:58.362Z,46.80
2022-12-05T23:51:28.425Z,44.83
2022-12-05T23:54:00.944Z,45.15
2022-12-05T23:56:31.103Z,47.60
2022-12-05T23:58:59.390Z,50.65
